createdAt,value
2022-10-11T00:00:16.587Z,77.33
2022-10-11T00:01:19.492Z,77.99
2022-10-11T00:02:24.437Z,77.26
2022-10-11T00:03:29.257Z,76.73
2022-10-11T00:04:31.067Z,77.06
2022-10-11T00:05:34.553Z,76.95
2022-10-11T00:06:37.837Z,76.54
2022-10-11T00:07:40.901Z,76.73
2022-10-11T00:08:42.751Z,76.63
2022-10-11T00:09:45.834Z,76.97
2022-10-11T00:10:57.057Z,76.92
2022-10-11T00:12:00.217Z,76.80
2022-10-11T00:13:02.753Z,76.50
2022-10-11T00:14:06.042Z,77.11
2022-10-11T00:15:09.502Z,77.14
2022-10-11T00:16:14.217Z,76.93
2022-10-11T00:17:16.232Z,76.89
2022-10-11T00:18:20.456Z,76.86
2022-10-11T00:19:22.742Z,77.28
2022-10-11T00:20:25.897Z,76.79
2022-10-11T00:21:27.793Z,77.17
2022-10-11T00:22:30.577Z,77.55
2022-10-11T00:23:33.207Z,77.80
2022-10-11T00:24:35.953Z,77.75
2022-10-11T00:25:39.179Z,77.30
2022-10-11T00:26:46.390Z,77.37
2022-10-11T00:27:51.663Z,77.64
2022-10-11T00:28:54.612Z,77.61
2022-10-11T00:29:56.783Z,77.32
2022-10-11T00:30:59.626Z,77.49
2022-10-11T00:32:02.490Z,77.77
2022-10-11T00:33:04.319Z,77.36
2022-10-11T00:34:08.775Z,77.85
2022-10-11T00:35:10.583Z,77.51
2022-10-11T00:36:16.697Z,77.93
2022-10-11T00:37:19.295Z,77.81
2022-10-11T00:38:22.209Z,78.10
2022-10-11T00:39:24.081Z,78.21
2022-10-11T00:40:29.772Z,78.47
2022-10-11T00:41:31.656Z,78.45
2022-10-11T00:42:34.500Z,79.41
2022-10-11T00:43:36.431Z,79.70
2022-10-11T00:44:41.065Z,79.41
2022-10-11T00:46:30.958Z,79.06
2022-10-11T00:47:33.265Z,79.75
2022-10-11T00:48:42.818Z,79.07
2022-10-11T00:49:50.878Z,78.66
2022-10-11T00:50:53.672Z,78.52
2022-10-11T00:51:59.864Z,79.29
2022-10-11T00:53:07.864Z,79.13
2022-10-11T00:54:14.426Z,78.57
2022-10-11T00:55:20.966Z,79.11
2022-10-11T00:56:27.318Z,79.35
2022-10-11T00:57:35.046Z,79.45
2022-10-11T00:58:38.623Z,79.30
2022-10-11T00:59:46.188Z,79.06
2022-10-11T01:00:48.119Z,78.68
2022-10-11T01:01:51.225Z,78.90
2022-10-11T01:02:53.349Z,78.78
2022-10-11T01:03:56.799Z,78.63
2022-10-11T01:05:25.277Z,78.76
2022-10-11T01:06:23.783Z,78.17
2022-10-11T01:07:31.128Z,78.83
2022-10-11T01:08:34.496Z,78.63
2022-10-11T01:09:36.465Z,78.91
2022-10-11T01:10:39.555Z,78.81
2022-10-11T01:11:43.604Z,79.53
2022-10-11T01:12:58.097Z,78.85
2022-10-11T01:14:22.955Z,79.08
2022-10-11T01:15:36.461Z,78.54
2022-10-11T01:16:47.115Z,78.66
2022-10-11T01:17:57.640Z,78.45
2022-10-11T01:19:12.173Z,78.46
2022-10-11T01:20:32.214Z,78.20
2022-10-11T01:21:41.571Z,78.71
2022-10-11T01:23:12.943Z,78.47
2022-10-11T01:24:37.603Z,79.35
2022-10-11T01:25:55.331Z,78.38
2022-10-11T01:27:25.959Z,79.47
2022-10-11T01:28:43.806Z,78.80
2022-10-11T01:29:55.650Z,78.90
2022-10-11T01:31:05.462Z,78.41
2022-10-11T01:32:15.223Z,78.93
2022-10-11T01:33:26.998Z,78.43
2022-10-11T01:34:37.142Z,78.79
2022-10-11T01:35:46.419Z,78.46
2022-10-11T01:36:55.945Z,78.65
2022-10-11T01:38:04.047Z,78.49
2022-10-11T01:39:14.137Z,78.78
2022-10-11T01:40:23.592Z,79.11
2022-10-11T01:41:31.943Z,78.46
2022-10-11T01:42:36.106Z,78.49
2022-10-11T01:43:41.482Z,78.86
2022-10-11T01:44:47.617Z,78.65
2022-10-11T01:45:52.689Z,78.80
2022-10-11T01:46:56.187Z,78.62
2022-10-11T01:48:05.058Z,78.46
2022-10-11T01:49:07.621Z,79.21
2022-10-11T01:50:35.280Z,78.33
2022-10-11T01:51:46.361Z,78.52
2022-10-11T01:52:50.585Z,78.56
2022-10-11T01:55:04.388Z,78.81
2022-10-11T01:56:09.696Z,78.69
2022-10-11T01:57:41.168Z,78.97
2022-10-11T01:58:57.493Z,78.64
2022-10-11T02:00:08.965Z,79.19
2022-10-11T02:01:24.147Z,78.71
2022-10-11T02:02:41.731Z,78.56
2022-10-11T02:03:48.144Z,78.97
2022-10-11T02:04:56.947Z,78.72
2022-10-11T02:06:08.898Z,78.71
2022-10-11T02:07:20.631Z,79.06
2022-10-11T02:08:32.483Z,78.98
2022-10-11T02:09:37.759Z,78.81
2022-10-11T02:10:45.373Z,78.96
2022-10-11T02:11:48.384Z,79.05
2022-10-11T02:12:57.958Z,78.69
2022-10-11T02:14:07.718Z,79.26
2022-10-11T02:15:12.931Z,78.93
2022-10-11T02:16:20.913Z,79.06
2022-10-11T02:17:29.057Z,79.05
2022-10-11T02:18:37.398Z,79.04
2022-10-11T02:19:43.625Z,79.26
2022-10-11T02:20:48.088Z,79.07
2022-10-11T02:21:54.521Z,79.31
2022-10-11T02:23:02.434Z,79.18
2022-10-11T02:24:09.435Z,79.02
2022-10-11T02:25:17.637Z,78.78
2022-10-11T02:26:21.277Z,78.56
2022-10-11T02:27:28.637Z,78.87
2022-10-11T02:28:34.629Z,78.91
2022-10-11T02:29:40.668Z,79.08
2022-10-11T02:30:45.215Z,78.86
2022-10-11T02:31:50.485Z,79.21
2022-10-11T02:32:54.567Z,78.93
2022-10-11T02:34:06.465Z,78.99
2022-10-11T02:35:09.671Z,78.63
2022-10-11T02:36:17.178Z,79.12
2022-10-11T02:37:26.672Z,79.25
2022-10-11T02:38:36.125Z,79.27
2022-10-11T02:39:42.357Z,79.28
2022-10-11T02:40:48.673Z,79.13
2022-10-11T02:41:53.384Z,79.13
2022-10-11T02:43:01.244Z,78.65
2022-10-11T02:44:08.175Z,78.93
2022-10-11T02:45:16.374Z,78.45
2022-10-11T02:46:18.611Z,78.85
2022-10-11T02:47:21.375Z,78.88
2022-10-11T02:48:25.098Z,78.99
2022-10-11T02:49:30.685Z,78.74
2022-10-11T02:50:32.827Z,79.08
2022-10-11T02:51:36.872Z,79.09
2022-10-11T02:52:38.863Z,78.92
2022-10-11T02:53:41.669Z,78.52
2022-10-11T02:54:43.424Z,78.98
2022-10-11T02:55:46.458Z,79.34
2022-10-11T02:56:48.236Z,79.00
2022-10-11T02:57:51.160Z,78.91
2022-10-11T02:58:53.045Z,78.78
2022-10-11T02:59:56.103Z,78.50
2022-10-11T03:00:58.119Z,78.53
2022-10-11T03:02:01.212Z,78.60
2022-10-11T03:03:03.107Z,78.66
2022-10-11T03:04:06.251Z,78.79
2022-10-11T03:05:09.997Z,79.15
2022-10-11T03:06:13.865Z,78.49
2022-10-11T03:07:15.704Z,78.52
2022-10-11T03:08:18.912Z,78.39
2022-10-11T03:09:20.770Z,78.07
2022-10-11T03:10:23.586Z,78.70
2022-10-11T03:11:25.636Z,77.92
2022-10-11T03:12:28.363Z,78.50
2022-10-11T03:13:30.137Z,78.63
2022-10-11T03:14:32.899Z,79.02
2022-10-11T03:15:35.289Z,79.00
2022-10-11T03:16:38.064Z,78.79
2022-10-11T03:17:39.910Z,78.48
2022-10-11T03:18:42.983Z,78.26
2022-10-11T03:19:44.734Z,78.49
2022-10-11T03:20:49.018Z,78.51
2022-10-11T03:21:50.835Z,78.60
2022-10-11T03:22:53.686Z,79.06
2022-10-11T03:23:55.465Z,78.72
2022-10-11T03:25:03.368Z,78.55
2022-10-11T03:26:06.742Z,78.91
2022-10-11T03:27:09.744Z,78.71
2022-10-11T03:28:11.645Z,78.89
2022-10-11T03:29:14.582Z,78.66
2022-10-11T03:30:18.301Z,78.91
2022-10-11T03:31:23.557Z,78.65
2022-10-11T03:32:25.560Z,78.64
2022-10-11T03:33:28.333Z,78.48
2022-10-11T03:34:30.165Z,78.71
2022-10-11T03:35:32.909Z,79.23
2022-10-11T03:36:37.105Z,78.65
2022-10-11T03:37:38.882Z,79.14
2022-10-11T03:38:41.734Z,78.61
2022-10-11T03:39:43.602Z,79.05
2022-10-11T03:40:46.375Z,78.96
2022-10-11T03:41:48.127Z,79.21
2022-10-11T03:42:50.888Z,78.81
2022-10-11T03:43:52.702Z,79.10
2022-10-11T03:44:55.445Z,79.30
2022-10-11T03:45:57.404Z,78.98
2022-10-11T03:47:00.353Z,78.60
2022-10-11T03:48:02.442Z,78.89
2022-10-11T03:49:05.273Z,79.33
2022-10-11T03:50:08.781Z,79.08
2022-10-11T03:51:13.073Z,79.02
2022-10-11T03:52:16.214Z,79.04
2022-10-11T03:53:19.054Z,79.24
2022-10-11T03:54:20.928Z,79.47
2022-10-11T03:55:23.729Z,79.45
2022-10-11T03:56:25.522Z,79.20
2022-10-11T03:57:28.584Z,78.98
2022-10-11T03:58:30.467Z,79.05
2022-10-11T03:59:33.217Z,78.61
2022-10-11T04:00:36.008Z,78.89
2022-10-11T04:01:38.875Z,78.76
2022-10-11T04:02:40.724Z,78.83
2022-10-11T04:03:43.548Z,78.93
2022-10-11T04:04:45.347Z,79.11
2022-10-11T04:05:48.102Z,78.92
2022-10-11T04:06:49.915Z,78.88
2022-10-11T04:07:54.057Z,79.08
2022-10-11T04:08:55.873Z,79.11
2022-10-11T04:09:58.961Z,79.18
2022-10-11T04:11:00.778Z,78.78
2022-10-11T04:12:03.717Z,79.11
2022-10-11T04:13:05.668Z,79.39
2022-10-11T04:14:08.568Z,79.50
2022-10-11T04:15:12.621Z,79.13
2022-10-11T04:16:15.475Z,78.62
2022-10-11T04:17:17.486Z,79.08
2022-10-11T04:18:20.247Z,79.12
2022-10-11T04:19:22.236Z,78.79
2022-10-11T04:20:25.079Z,78.77
2022-10-11T04:21:26.833Z,79.33
2022-10-11T04:22:29.625Z,79.35
2022-10-11T04:23:33.714Z,79.37
2022-10-11T04:24:36.506Z,79.52
2022-10-11T04:25:38.640Z,78.81
2022-10-11T04:26:41.462Z,78.46
2022-10-11T04:27:43.340Z,78.37
2022-10-11T04:28:46.161Z,79.03
2022-10-11T04:29:48.916Z,79.33
2022-10-11T04:30:52.106Z,78.82
2022-10-11T04:31:53.866Z,78.89
2022-10-11T04:32:56.826Z,79.06
2022-10-11T04:33:58.641Z,78.96
2022-10-11T04:35:01.860Z,79.07
2022-10-11T04:36:04.646Z,78.71
2022-10-11T04:37:07.668Z,78.38
2022-10-11T04:38:09.849Z,78.69
2022-10-11T04:39:14.113Z,79.12
2022-10-11T04:40:16.137Z,78.67
2022-10-11T04:41:18.906Z,79.01
2022-10-11T04:42:21.054Z,79.43
2022-10-11T04:43:23.823Z,79.19
2022-10-11T04:44:25.642Z,78.37
2022-10-11T04:45:28.488Z,78.41
2022-10-11T04:46:30.472Z,78.60
2022-10-11T04:47:33.231Z,78.45
2022-10-11T04:48:35.361Z,78.24
2022-10-11T04:49:38.876Z,78.35
2022-10-11T04:50:40.653Z,78.41
2022-10-11T04:51:44.118Z,79.05
2022-10-11T04:52:45.901Z,78.79
2022-10-11T04:53:48.939Z,78.34
2022-10-11T04:54:52.068Z,78.17
2022-10-11T04:56:01.062Z,78.16
2022-10-11T04:57:03.424Z,77.95
2022-10-11T04:58:06.183Z,78.42
2022-10-11T04:59:08.018Z,77.89
2022-10-11T05:00:12.294Z,78.59
2022-10-11T05:01:15.080Z,78.71
2022-10-11T05:02:18.110Z,78.06
2022-10-11T05:03:20.621Z,78.68
2022-10-11T05:04:23.485Z,78.56
2022-10-11T05:05:26.498Z,78.78
2022-10-11T05:06:29.490Z,79.26
2022-10-11T05:07:31.398Z,78.59
2022-10-11T05:08:34.546Z,78.91
2022-10-11T05:09:36.380Z,78.11
2022-10-11T05:10:40.899Z,78.26
2022-10-11T05:11:42.662Z,78.35
2022-10-11T05:12:45.431Z,78.87
2022-10-11T05:13:47.605Z,78.89
2022-10-11T05:14:50.377Z,78.86
2022-10-11T05:15:52.633Z,78.28
2022-10-11T05:16:55.644Z,78.47
2022-10-11T05:17:57.480Z,78.12
2022-10-11T05:19:00.419Z,78.44
2022-10-11T05:20:02.529Z,79.06
2022-10-11T05:21:08.992Z,78.60
2022-10-11T05:22:10.895Z,78.53
2022-10-11T05:23:13.927Z,78.38
2022-10-11T05:24:15.734Z,78.72
2022-10-11T05:25:18.686Z,78.95
2022-10-11T05:26:22.807Z,78.66
2022-10-11T05:27:25.633Z,78.26
2022-10-11T05:28:28.044Z,78.25
2022-10-11T05:29:30.965Z,78.19
2022-10-11T05:30:33.242Z,78.10
2022-10-11T05:31:36.067Z,78.13
2022-10-11T05:32:37.905Z,78.19
2022-10-11T05:33:40.705Z,78.05
2022-10-11T05:34:42.500Z,78.16
2022-10-11T05:35:45.498Z,77.68
2022-10-11T05:36:47.427Z,78.12
2022-10-11T05:37:50.284Z,77.97
2022-10-11T05:38:53.091Z,77.90
2022-10-11T05:39:54.824Z,77.72
2022-10-11T05:41:00.769Z,78.19
2022-10-11T05:42:08.929Z,77.86
2022-10-11T05:43:12.781Z,78.10
2022-10-11T05:44:14.600Z,77.82
2022-10-11T05:45:17.537Z,77.96
2022-10-11T05:46:19.500Z,78.28
2022-10-11T05:47:22.408Z,78.13
2022-10-11T05:48:26.141Z,77.98
2022-10-11T05:49:29.168Z,78.20
2022-10-11T05:50:32.128Z,78.72
2022-10-11T05:51:35.121Z,78.28
2022-10-11T05:52:37.094Z,78.13
2022-10-11T05:53:40.464Z,78.63
2022-10-11T05:54:42.244Z,78.14
2022-10-11T05:55:45.839Z,78.38
2022-10-11T05:56:48.201Z,78.99
2022-10-11T05:57:54.442Z,78.13
2022-10-11T05:59:01.382Z,78.89
2022-10-11T06:00:06.025Z,78.54
2022-10-11T06:01:19.506Z,78.29
2022-10-11T06:02:22.329Z,78.30
2022-10-11T06:03:25.348Z,78.56
2022-10-11T06:04:28.222Z,78.29
2022-10-11T06:05:29.995Z,78.75
2022-10-11T06:06:33.113Z,78.70
2022-10-11T06:07:36.229Z,78.85
2022-10-11T06:08:39.053Z,78.82
2022-10-11T06:09:41.821Z,78.32
2022-10-11T06:10:44.776Z,78.62
2022-10-11T06:11:47.676Z,79.10
2022-10-11T06:12:49.456Z,78.40
2022-10-11T06:13:57.899Z,78.46
2022-10-11T06:15:00.128Z,78.19
2022-10-11T06:16:04.915Z,78.53
2022-10-11T06:17:06.947Z,78.31
2022-10-11T06:18:09.803Z,78.92
2022-10-11T06:19:11.611Z,78.56
2022-10-11T06:20:14.490Z,78.39
2022-10-11T06:21:17.357Z,78.27
2022-10-11T06:22:19.148Z,78.53
2022-10-11T06:23:22.040Z,77.88
2022-10-11T06:24:23.912Z,78.44
2022-10-11T06:25:26.811Z,78.30
2022-10-11T06:26:28.723Z,78.42
2022-10-11T06:27:31.574Z,82.06
2022-10-11T06:28:35.466Z,80.88
2022-10-11T06:29:39.700Z,79.97
2022-10-11T06:30:41.539Z,79.44
2022-10-11T06:31:44.574Z,78.95
2022-10-11T06:32:46.399Z,78.36
2022-10-11T06:33:49.222Z,78.50
2022-10-11T06:34:51.112Z,77.99
2022-10-11T06:35:58.793Z,78.43
2022-10-11T06:37:01.558Z,78.51
2022-10-11T06:38:03.316Z,78.61
2022-10-11T06:39:06.061Z,78.51
2022-10-11T06:40:08.646Z,79.03
2022-10-11T06:41:14.180Z,79.20
2022-10-11T06:42:16.314Z,78.63
2022-10-11T06:43:19.336Z,79.20
2022-10-11T06:44:21.167Z,78.79
2022-10-11T06:45:25.452Z,78.80
2022-10-11T06:46:28.311Z,78.77
2022-10-11T06:47:31.146Z,79.05
2022-10-11T06:48:32.952Z,79.25
2022-10-11T06:49:36.390Z,79.38
2022-10-11T06:50:58.695Z,79.47
2022-10-11T06:52:01.215Z,80.03
2022-10-11T06:53:03.180Z,80.02
2022-10-11T06:54:06.148Z,80.13
2022-10-11T06:55:08.698Z,79.54
2022-10-11T06:56:12.997Z,79.53
2022-10-11T06:57:14.796Z,80.18
2022-10-11T06:58:18.319Z,80.28
2022-10-11T06:59:20.127Z,80.31
2022-10-11T07:00:22.966Z,80.71
2022-10-11T07:01:26.813Z,81.11
2022-10-11T07:02:30.340Z,81.31
2022-10-11T07:03:32.685Z,81.55
2022-10-11T07:04:35.622Z,81.34
2022-10-11T07:05:37.501Z,81.32
2022-10-11T07:06:41.996Z,81.42
2022-10-11T07:07:44.536Z,81.26
2022-10-11T07:08:47.693Z,81.95
2022-10-11T07:09:49.584Z,81.42
2022-10-11T07:10:52.608Z,82.02
2022-10-11T07:11:54.445Z,81.92
2022-10-11T07:12:57.376Z,82.15
2022-10-11T07:14:01.242Z,82.50
2022-10-11T07:15:04.677Z,82.64
2022-10-11T07:16:09.586Z,82.85
2022-10-11T07:17:15.413Z,82.77
2022-10-11T07:18:17.218Z,82.54
2022-10-11T07:19:20.278Z,82.84
2022-10-11T07:20:22.689Z,82.89
2022-10-11T07:21:27.579Z,83.18
2022-10-11T07:22:29.377Z,83.13
2022-10-11T07:23:32.377Z,83.35
2022-10-11T07:24:35.245Z,83.30
2022-10-11T07:25:37.191Z,83.20
2022-10-11T07:26:39.956Z,83.57
2022-10-11T07:27:43.251Z,83.30
2022-10-11T07:28:46.959Z,82.95
2022-10-11T07:29:50.372Z,83.17
2022-10-11T07:30:54.445Z,82.88
2022-10-11T07:31:57.279Z,83.27
2022-10-11T07:33:00.701Z,83.81
2022-10-11T07:34:03.500Z,83.59
2022-10-11T07:35:06.233Z,83.51
2022-10-11T07:36:10.163Z,83.54
2022-10-11T07:37:12.093Z,83.70
2022-10-11T07:38:15.023Z,83.18
2022-10-11T07:39:17.927Z,83.27
2022-10-11T07:40:19.735Z,83.19
2022-10-11T07:41:22.956Z,83.31
2022-10-11T07:42:25.239Z,83.47
2022-10-11T07:43:28.048Z,83.93
2022-10-11T07:44:31.118Z,83.81
2022-10-11T07:45:33.271Z,83.54
2022-10-11T07:46:36.082Z,83.68
2022-10-11T07:47:39.108Z,83.59
2022-10-11T07:48:42.726Z,83.91
2022-10-11T07:49:45.549Z,83.76
2022-10-11T07:50:47.679Z,83.80
2022-10-11T07:51:50.482Z,83.87
2022-10-11T07:52:52.334Z,83.92
2022-10-11T07:53:57.252Z,83.48
2022-10-11T07:54:59.091Z,83.95
2022-10-11T07:56:02.834Z,83.81
2022-10-11T07:57:04.993Z,83.72
2022-10-11T07:58:08.211Z,83.86
2022-10-11T07:59:12.358Z,83.87
2022-10-11T08:00:14.788Z,84.05
2022-10-11T08:01:17.682Z,83.59
2022-10-11T08:02:19.641Z,84.09
2022-10-11T08:03:22.535Z,83.97
2022-10-11T08:04:26.877Z,83.90
2022-10-11T08:05:28.693Z,83.89
2022-10-11T08:06:32.796Z,84.45
2022-10-11T08:07:35.108Z,83.98
2022-10-11T08:08:37.947Z,84.20
2022-10-11T08:09:41.111Z,83.89
2022-10-11T08:10:42.958Z,84.11
2022-10-11T08:11:45.740Z,84.45
2022-10-11T08:12:47.673Z,84.33
2022-10-11T08:13:50.890Z,84.75
2022-10-11T08:14:54.540Z,84.46
2022-10-11T08:15:57.475Z,84.09
2022-10-11T08:16:59.656Z,84.46
2022-10-11T08:18:02.571Z,84.85
2022-10-11T08:19:05.687Z,85.03
2022-10-11T08:20:10.094Z,85.11
2022-10-11T08:21:15.144Z,84.69
2022-10-11T08:22:16.966Z,84.83
2022-10-11T08:23:20.848Z,84.69
2022-10-11T08:24:25.018Z,84.46
2022-10-11T08:25:27.026Z,84.43
2022-10-11T08:26:30.163Z,84.56
2022-10-11T08:27:32.358Z,84.54
2022-10-11T08:28:35.295Z,84.89
2022-10-11T08:29:38.242Z,84.67
2022-10-11T08:30:40.118Z,84.96
2022-10-11T08:31:44.436Z,84.95
2022-10-11T08:32:46.281Z,84.86
2022-10-11T08:33:49.060Z,84.62
2022-10-11T08:34:50.870Z,84.82
2022-10-11T08:35:55.616Z,85.20
2022-10-11T08:36:58.637Z,85.05
2022-10-11T08:38:00.553Z,84.91
2022-10-11T08:39:03.325Z,84.62
2022-10-11T08:40:06.567Z,84.77
2022-10-11T08:41:28.252Z,84.60
2022-10-11T08:42:35.931Z,84.95
2022-10-11T08:43:46.971Z,85.11
2022-10-11T08:46:23.651Z,84.98
2022-10-11T08:47:30.885Z,85.04
2022-10-11T08:48:36.990Z,85.07
2022-10-11T08:49:40.707Z,85.99
2022-10-11T08:50:46.556Z,85.32
2022-10-11T08:51:59.964Z,85.48
2022-10-11T08:53:07.993Z,85.33
2022-10-11T08:54:19.028Z,85.41
2022-10-11T08:55:26.315Z,85.55
2022-10-11T08:56:31.865Z,85.32
2022-10-11T08:57:37.941Z,85.49
2022-10-11T08:58:43.566Z,85.39
2022-10-11T08:59:51.052Z,85.33
2022-10-11T09:00:56.445Z,85.74
2022-10-11T09:02:06.078Z,85.61
2022-10-11T09:03:21.647Z,85.61
2022-10-11T09:04:23.527Z,85.54
2022-10-11T09:05:32.110Z,85.52
2022-10-11T09:06:47.244Z,85.68
2022-10-11T09:08:00.933Z,85.34
2022-10-11T09:09:14.830Z,85.19
2022-10-11T09:10:48.061Z,85.65
2022-10-11T09:12:03.305Z,85.75
2022-10-11T09:13:18.215Z,85.63
2022-10-11T09:14:44.015Z,85.38
2022-10-11T09:15:57.439Z,85.76
2022-10-11T09:17:06.500Z,85.83
2022-10-11T09:18:27.200Z,85.88
2022-10-11T09:19:51.943Z,85.91
2022-10-11T09:21:09.245Z,85.84
2022-10-11T09:22:24.803Z,85.68
2022-10-11T09:23:46.448Z,85.71
2022-10-11T09:25:05.834Z,85.91
2022-10-11T09:26:15.615Z,85.45
2022-10-11T09:27:37.846Z,85.66
2022-10-11T09:29:03.353Z,85.36
2022-10-11T09:30:10.975Z,85.73
2022-10-11T09:31:13.866Z,85.74
2022-10-11T09:32:17.853Z,86.04
2022-10-11T09:33:24.924Z,85.66
2022-10-11T09:34:32.372Z,85.82
2022-10-11T09:35:41.938Z,85.85
2022-10-11T09:36:50.952Z,86.29
2022-10-11T09:38:00.874Z,85.84
2022-10-11T09:39:13.828Z,86.08
2022-10-11T09:40:41.242Z,85.66
2022-10-11T09:41:50.220Z,86.00
2022-10-11T09:42:53.139Z,85.98
2022-10-11T09:43:55.991Z,85.84
2022-10-11T09:45:00.022Z,86.01
2022-10-11T09:46:03.214Z,85.19
2022-10-11T09:47:06.879Z,85.51
2022-10-11T09:48:11.286Z,85.22
2022-10-11T09:49:16.903Z,85.47
2022-10-11T09:50:21.028Z,84.90
2022-10-11T09:51:26.990Z,84.72
2022-10-11T09:52:30.063Z,84.70
2022-10-11T09:53:56.767Z,85.36
2022-10-11T09:55:02.982Z,85.60
2022-10-11T09:56:05.678Z,85.26
2022-10-11T09:57:21.017Z,85.17
2022-10-11T09:58:27.975Z,85.64
2022-10-11T09:59:32.568Z,85.36
2022-10-11T10:00:34.640Z,85.67
2022-10-11T10:01:37.902Z,85.55
2022-10-11T10:02:42.012Z,85.21
2022-10-11T10:03:45.439Z,85.54
2022-10-11T10:05:00.293Z,85.08
2022-10-11T10:06:08.504Z,85.45
2022-10-11T10:07:13.591Z,85.52
2022-10-11T10:08:25.381Z,85.41
2022-10-11T10:09:30.316Z,85.41
2022-10-11T10:10:40.487Z,85.46
2022-10-11T10:11:42.436Z,85.60
2022-10-11T10:12:45.403Z,85.19
2022-10-11T10:13:50.993Z,85.08
2022-10-11T10:15:05.026Z,85.08
2022-10-11T10:16:11.628Z,85.16
2022-10-11T10:17:17.405Z,85.33
2022-10-11T10:18:24.468Z,84.45
2022-10-11T10:19:27.492Z,85.13
2022-10-11T10:20:31.740Z,85.22
2022-10-11T10:21:37.182Z,84.92
2022-10-11T10:22:40.133Z,84.92
2022-10-11T10:23:43.249Z,84.82
2022-10-11T10:24:46.377Z,84.58
2022-10-11T10:25:51.782Z,84.63
2022-10-11T10:27:08.245Z,84.82
2022-10-11T10:28:20.116Z,84.83
2022-10-11T10:29:22.056Z,84.98
2022-10-11T10:30:25.144Z,85.11
2022-10-11T10:31:49.441Z,84.82
2022-10-11T10:33:02.049Z,84.85
2022-10-11T10:34:11.627Z,85.01
2022-10-11T10:35:19.772Z,84.60
2022-10-11T10:36:28.056Z,84.84
2022-10-11T10:37:33.881Z,85.02
2022-10-11T10:38:41.716Z,84.83
2022-10-11T10:39:51.042Z,84.65
2022-10-11T10:40:59.091Z,85.08
2022-10-11T10:42:03.559Z,85.09
2022-10-11T10:43:06.452Z,84.92
2022-10-11T10:44:10.791Z,84.72
2022-10-11T10:45:21.157Z,85.03
2022-10-11T10:46:52.032Z,84.95
2022-10-11T10:48:10.888Z,84.92
2022-10-11T10:50:51.031Z,84.98
2022-10-11T10:52:08.048Z,84.71
2022-10-11T10:53:24.402Z,84.88
2022-10-11T10:54:41.522Z,84.54
2022-10-11T10:55:46.044Z,84.17
2022-10-11T10:56:55.877Z,84.80
2022-10-11T10:58:24.735Z,84.55
2022-10-11T10:59:43.941Z,84.72
2022-10-11T11:00:49.416Z,84.74
2022-10-11T11:01:57.282Z,84.93
2022-10-11T11:03:02.589Z,84.94
2022-10-11T11:04:12.578Z,84.83
2022-10-11T11:05:27.029Z,85.12
2022-10-11T11:06:39.565Z,84.66
2022-10-11T11:07:48.068Z,84.65
2022-10-11T11:09:04.206Z,84.53
2022-10-11T11:10:14.308Z,84.45
2022-10-11T11:11:31.728Z,84.26
2022-10-11T11:12:46.419Z,84.12
2022-10-11T11:13:56.535Z,84.11
2022-10-11T11:15:06.809Z,83.80
2022-10-11T11:16:19.758Z,84.42
2022-10-11T11:17:29.879Z,83.97
2022-10-11T11:18:43.261Z,84.25
2022-10-11T11:19:58.321Z,83.67
2022-10-11T11:21:25.751Z,83.97
2022-10-11T11:22:36.409Z,84.31
2022-10-11T11:23:46.476Z,84.15
2022-10-11T11:24:59.849Z,84.33
2022-10-11T11:26:10.370Z,84.24
2022-10-11T11:27:24.923Z,84.15
2022-10-11T11:29:04.512Z,84.15
2022-10-11T11:30:10.160Z,83.65
2022-10-11T11:31:30.465Z,83.22
2022-10-11T11:32:47.199Z,83.42
2022-10-11T11:33:59.243Z,83.73
2022-10-11T11:35:03.764Z,83.78
2022-10-11T11:36:12.519Z,83.62
2022-10-11T11:37:24.689Z,83.84
2022-10-11T11:38:39.989Z,83.52
2022-10-11T11:39:48.023Z,83.65
2022-10-11T11:40:55.841Z,83.63
2022-10-11T11:42:05.176Z,83.19
2022-10-11T11:43:16.788Z,83.04
2022-10-11T11:44:27.619Z,83.36
2022-10-11T11:45:37.231Z,83.22
2022-10-11T11:46:43.936Z,83.36
2022-10-11T11:47:53.862Z,83.65
2022-10-11T11:48:58.711Z,83.25
2022-10-11T11:50:06.565Z,83.01
2022-10-11T11:51:18.630Z,83.16
2022-10-11T11:52:27.773Z,82.78
2022-10-11T11:53:43.731Z,82.54
2022-10-11T11:54:53.027Z,82.40
2022-10-11T11:56:01.269Z,82.21
2022-10-11T11:57:14.235Z,82.18
2022-10-11T11:58:30.694Z,82.45
2022-10-11T11:59:41.286Z,82.02
2022-10-11T12:00:52.942Z,82.06
2022-10-11T12:02:12.285Z,82.07
2022-10-11T12:03:22.581Z,81.99
2022-10-11T12:04:28.476Z,82.42
2022-10-11T12:05:33.408Z,82.44
2022-10-11T12:06:52.516Z,82.02
2022-10-11T12:08:05.443Z,81.96
2022-10-11T12:09:21.229Z,81.69
2022-10-11T12:10:37.617Z,81.69
2022-10-11T12:11:46.077Z,81.74
2022-10-11T12:12:49.140Z,81.36
2022-10-11T12:13:55.212Z,81.34
2022-10-11T12:15:19.512Z,81.31
2022-10-11T12:16:23.088Z,81.40
2022-10-11T12:17:26.297Z,81.42
2022-10-11T12:18:29.185Z,81.54
2022-10-11T12:19:32.297Z,81.24
2022-10-11T12:20:38.578Z,80.94
2022-10-11T12:21:45.295Z,80.57
2022-10-11T12:22:56.144Z,80.36
2022-10-11T12:24:00.925Z,80.72
2022-10-11T12:25:36.287Z,80.10
2022-10-11T12:26:42.824Z,80.46
2022-10-11T12:27:47.062Z,80.44
2022-10-11T12:29:07.643Z,80.59
2022-10-11T12:30:43.797Z,81.00
2022-10-11T12:31:48.065Z,81.46
2022-10-11T12:32:53.441Z,81.12
2022-10-11T12:34:20.858Z,80.87
2022-10-11T12:36:05.873Z,80.95
2022-10-11T12:37:59.843Z,80.62
2022-10-11T12:39:44.134Z,80.32
2022-10-11T12:40:49.068Z,80.19
2022-10-11T12:41:53.855Z,80.05
2022-10-11T12:43:29.188Z,79.85
2022-10-11T12:44:32.910Z,79.96
2022-10-11T12:45:34.992Z,80.20
2022-10-11T12:46:57.672Z,80.50
2022-10-11T12:48:13.212Z,80.50
2022-10-11T12:49:29.166Z,80.81
2022-10-11T12:50:39.264Z,80.66
2022-10-11T12:51:52.160Z,80.45
2022-10-11T12:53:03.476Z,80.12
2022-10-11T12:54:37.516Z,80.47
2022-10-11T12:55:57.105Z,80.94
2022-10-11T12:57:28.740Z,80.89
2022-10-11T12:58:38.782Z,80.83
2022-10-11T12:59:46.203Z,80.48
2022-10-11T13:01:18.719Z,80.92
2022-10-11T13:02:29.030Z,80.92
2022-10-11T13:03:34.206Z,80.98
2022-10-11T13:04:37.039Z,80.98
2022-10-11T13:05:45.312Z,81.18
2022-10-11T13:06:51.192Z,80.77
2022-10-11T13:07:56.947Z,80.58
2022-10-11T13:09:05.069Z,80.72
2022-10-11T13:10:08.715Z,80.46
2022-10-11T13:11:20.150Z,80.69
2022-10-11T13:12:24.858Z,80.68
2022-10-11T13:13:31.244Z,80.24
2022-10-11T13:14:38.455Z,80.55
2022-10-11T13:15:43.579Z,80.66
2022-10-11T13:16:56.878Z,80.83
2022-10-11T13:18:00.382Z,81.17
2022-10-11T13:19:07.002Z,81.02
2022-10-11T13:20:18.166Z,81.04
2022-10-11T13:21:28.435Z,80.43
2022-10-11T13:22:35.910Z,80.25
2022-10-11T13:23:38.815Z,80.14
2022-10-11T13:24:42.554Z,80.28
2022-10-11T13:25:44.516Z,79.92
2022-10-11T13:26:50.776Z,79.89
2022-10-11T13:27:55.754Z,80.42
2022-10-11T13:29:00.057Z,80.10
2022-10-11T13:30:06.792Z,80.22
2022-10-11T13:31:09.450Z,79.88
2022-10-11T13:32:17.401Z,80.33
2022-10-11T13:33:23.683Z,80.17
2022-10-11T13:34:26.004Z,79.89
2022-10-11T13:35:32.660Z,80.15
2022-10-11T13:36:34.690Z,80.41
2022-10-11T13:37:43.436Z,80.34
2022-10-11T13:38:52.641Z,80.05
2022-10-11T13:39:56.799Z,80.41
2022-10-11T13:41:04.050Z,80.95
2022-10-11T13:42:10.791Z,81.11
2022-10-11T13:43:15.566Z,81.26
2022-10-11T13:44:17.531Z,81.13
2022-10-11T13:45:22.991Z,81.29
2022-10-11T13:46:26.885Z,81.32
2022-10-11T13:47:32.093Z,81.22
2022-10-11T13:48:40.913Z,81.42
2022-10-11T13:49:45.848Z,80.96
2022-10-11T13:51:07.017Z,81.50
2022-10-11T13:52:22.623Z,80.95
2022-10-11T13:53:25.052Z,81.48
2022-10-11T13:54:57.766Z,81.52
2022-10-11T13:56:04.188Z,81.26
2022-10-11T13:57:13.310Z,81.22
2022-10-11T13:58:21.490Z,81.17
2022-10-11T13:59:25.402Z,81.47
2022-10-11T14:00:33.577Z,81.10
2022-10-11T14:01:39.515Z,81.03
2022-10-11T14:02:49.341Z,80.83
2022-10-11T14:03:57.609Z,81.25
2022-10-11T14:05:00.728Z,81.30
2022-10-11T14:06:03.871Z,81.58
2022-10-11T14:07:07.082Z,81.22
2022-10-11T14:08:23.251Z,81.36
2022-10-11T14:09:28.853Z,81.00
2022-10-11T14:10:32.170Z,81.23
2022-10-11T14:11:36.845Z,81.11
2022-10-11T14:12:44.318Z,81.08
2022-10-11T14:13:49.717Z,81.32
2022-10-11T14:14:51.782Z,81.14
2022-10-11T14:16:04.083Z,81.47
2022-10-11T14:17:12.603Z,81.08
2022-10-11T14:18:41.103Z,81.06
2022-10-11T14:19:45.200Z,80.95
2022-10-11T14:20:47.145Z,81.05
2022-10-11T14:21:51.780Z,81.05
2022-10-11T14:22:54.180Z,81.29